createdAt,value
2019-05-07T14:06:55.944Z,34.35
2019-05-07T14:09:42.050Z,34.19
2019-05-07T14:15:22.999Z,34.26
2019-05-07T14:17:56.078Z,34.30
2019-05-07T14:20:33.653Z,34.34
2019-05-07T14:23:08.067Z,34.39
2019-05-07T14:25:44.446Z,34.42
2019-05-07T14:28:18.887Z,34.46
2019-05-07T14:30:54.968Z,34.47
2019-05-07T14:33:30.453Z,34.50
2019-05-07T14:36:24.798Z,34.52
2019-05-07T14:38:58.274Z,34.51
2019-05-07T14:41:32.533Z,34.54
2019-05-07T14:44:12.096Z,34.57
2019-05-07T14:46:50.276Z,34.57
2019-05-07T14:49:17.343Z,34.57
2019-05-07T14:51:59.873Z,34.56
2019-05-07T14:54:34.121Z,34.54
2019-05-07T14:57:15.098Z,34.49
2019-05-07T14:59:48.713Z,34.49
2019-05-07T15:02:25.281Z,34.49
2019-05-07T15:04:58.284Z,34.48
2019-05-07T15:07:32.705Z,34.53
2019-05-07T15:10:07.231Z,34.48
2019-05-07T15:12:49.076Z,34.47
2019-05-07T15:15:22.084Z,34.47
2019-05-07T15:17:56.510Z,34.40
2019-05-07T15:20:41.913Z,34.41
2019-05-07T15:23:38.454Z,34.32
2019-05-07T15:26:21.977Z,34.36
2019-05-07T15:28:55.910Z,34.39
2019-05-07T15:31:36.134Z,34.42
2019-05-07T15:34:12.252Z,34.38
2019-05-07T15:36:56.659Z,34.37
2019-05-07T15:39:39.449Z,34.37
2019-05-07T15:42:17.988Z,34.36
2019-05-07T15:44:52.866Z,34.33
2019-05-07T15:47:27.671Z,34.39
2019-05-07T15:50:00.269Z,34.37
2019-05-07T15:52:34.661Z,34.29
2019-05-07T15:55:08.030Z,34.25
2019-05-07T15:57:42.679Z,34.24
2019-05-07T16:00:17.408Z,34.21
2019-05-07T16:02:53.770Z,34.29
2019-05-07T16:05:27.666Z,34.25
2019-05-07T16:08:06.108Z,34.21
2019-05-07T16:10:39.713Z,34.27
2019-05-07T16:13:15.475Z,34.38
2019-05-07T16:15:47.540Z,34.33
2019-05-07T16:18:23.622Z,34.35
2019-05-07T16:20:54.712Z,34.32
2019-05-07T16:23:27.639Z,34.27
2019-05-07T16:26:02.469Z,34.26
2019-05-07T16:28:35.366Z,34.26
2019-05-07T16:31:09.319Z,34.24
2019-05-07T16:33:43.087Z,34.27
2019-05-07T16:36:18.734Z,34.26
2019-05-07T16:38:52.872Z,34.26
2019-05-07T16:41:25.916Z,34.21
2019-05-07T16:43:58.454Z,34.18
2019-05-07T16:46:31.540Z,34.18
2019-05-07T16:49:04.822Z,34.23
2019-05-07T16:51:41.917Z,34.20
2019-05-07T16:54:16.193Z,34.16
2019-05-07T16:56:52.147Z,34.16
2019-05-07T16:59:27.440Z,34.26
2019-05-07T17:02:04.678Z,34.23
2019-05-07T17:04:37.799Z,34.19
2019-05-07T17:07:13.342Z,34.18
2019-05-07T17:09:58.997Z,34.13
2019-05-07T17:12:47.074Z,34.21
2019-05-07T17:15:46.819Z,34.20
2019-05-07T17:18:14.906Z,34.15
2019-05-07T17:20:47.774Z,34.19
2019-05-07T17:23:42.854Z,34.17
2019-05-07T17:26:16.082Z,34.11
2019-05-07T17:28:52.076Z,34.08
2019-05-07T17:31:26.899Z,34.02
2019-05-07T17:34:07.222Z,34.02
2019-05-07T17:36:42.050Z,33.98
2019-05-07T17:39:14.106Z,33.99
2019-05-07T17:41:47.362Z,34.00
2019-05-07T17:44:20.015Z,33.98
2019-05-07T17:46:53.334Z,34.00
2019-05-07T17:49:27.424Z,33.93
2019-05-07T17:52:02.828Z,33.99
2019-05-07T17:54:35.497Z,33.97
2019-05-07T17:57:08.831Z,34.01
2019-05-07T17:59:42.225Z,33.93
2019-05-07T18:02:14.862Z,33.88
2019-05-07T18:04:51.541Z,33.89
2019-05-07T18:07:23.101Z,33.90
2019-05-07T18:09:58.299Z,33.87
2019-05-07T18:12:32.091Z,33.91
2019-05-07T18:15:05.056Z,33.90
2019-05-07T18:17:38.810Z,33.93
2019-05-07T18:20:12.856Z,33.92
2019-05-07T18:22:45.656Z,33.86
2019-05-07T18:25:18.559Z,33.86
2019-05-07T18:27:52.717Z,33.90
2019-05-07T18:30:26.275Z,33.87
2019-05-07T18:33:02.424Z,33.87
2019-05-07T18:35:34.366Z,33.80
2019-05-07T18:38:15.303Z,33.86
2019-05-07T18:40:49.255Z,33.94
2019-05-07T18:43:22.691Z,33.93
2019-05-07T18:45:56.589Z,33.95
2019-05-07T18:48:29.431Z,33.93
2019-05-07T18:51:02.892Z,33.83
2019-05-07T18:53:36.104Z,33.84
2019-05-07T18:56:09.184Z,33.83
2019-05-07T18:58:42.880Z,33.83
2019-05-07T19:01:16.914Z,33.79
2019-05-07T19:03:52.544Z,33.74
2019-05-07T19:06:26.257Z,33.65
2019-05-07T19:08:59.345Z,33.67
2019-05-07T19:11:32.711Z,33.66
2019-05-07T19:14:06.661Z,33.67
2019-05-07T19:16:47.365Z,33.64
2019-05-07T19:19:22.152Z,33.68
2019-05-07T19:21:55.191Z,33.71
2019-05-07T19:24:42.234Z,33.69
2019-05-07T19:27:02.873Z,33.70
2019-05-07T19:29:35.158Z,33.67
2019-05-07T19:32:09.455Z,33.65
2019-05-07T19:34:42.854Z,33.64
2019-05-07T19:37:15.682Z,33.62
2019-05-07T19:39:48.799Z,33.66
2019-05-07T19:42:23.831Z,33.58
2019-05-07T19:44:56.924Z,33.61
2019-05-07T19:47:29.613Z,33.59
2019-05-07T19:50:02.486Z,33.60
2019-05-07T19:52:35.786Z,33.60
2019-05-07T19:55:09.846Z,33.61
2019-05-07T19:57:44.632Z,33.59
2019-05-07T20:00:19.305Z,33.54
2019-05-07T20:02:57.460Z,33.56
2019-05-07T20:05:32.345Z,33.57
2019-05-07T20:08:04.868Z,33.53
2019-05-07T20:10:38.820Z,33.49
2019-05-07T20:13:12.626Z,33.51
2019-05-07T20:15:47.375Z,33.49
2019-05-07T20:18:22.001Z,33.53
2019-05-07T20:20:54.842Z,33.51
2019-05-07T20:23:28.223Z,33.45
2019-05-07T20:26:04.104Z,33.41
2019-05-07T20:28:36.765Z,33.46
2019-05-07T20:31:11.648Z,33.45
2019-05-07T20:33:43.990Z,33.41
2019-05-07T20:36:18.153Z,33.40
2019-05-07T20:38:52.108Z,33.35
2019-05-07T20:41:28.621Z,33.39
2019-05-07T20:44:03.004Z,33.35
2019-05-07T20:46:36.348Z,33.36
2019-05-07T20:49:10.133Z,33.31
2019-05-07T20:51:42.915Z,33.39
2019-05-07T20:54:18.091Z,33.32
2019-05-07T20:56:54.241Z,33.35
2019-05-07T20:59:32.714Z,33.34
2019-05-07T21:02:05.700Z,33.34
2019-05-07T21:04:38.089Z,33.30
2019-05-07T21:07:11.850Z,33.29
2019-05-07T21:09:46.648Z,33.31
2019-05-07T21:12:22.488Z,33.29
2019-05-07T21:14:55.039Z,33.29
2019-05-07T21:17:28.158Z,33.25
2019-05-07T21:20:02.212Z,33.21
2019-05-07T21:22:34.847Z,33.22
2019-05-07T21:25:11.889Z,33.18
2019-05-07T21:27:45.514Z,33.20
2019-05-07T21:30:22.308Z,33.25
2019-05-07T21:32:54.744Z,33.24
2019-05-07T21:35:29.059Z,33.23
2019-05-07T21:38:03.021Z,33.16
2019-05-07T21:40:42.851Z,33.20
2019-05-07T21:43:21.862Z,33.13
2019-05-07T21:45:54.531Z,33.11
2019-05-07T21:48:29.764Z,33.01
2019-05-07T21:51:02.754Z,33.07
2019-05-07T21:53:37.528Z,33.00
2019-05-07T21:56:13.648Z,32.99
2019-05-07T21:58:48.160Z,32.97
2019-05-07T22:01:23.282Z,32.99
2019-05-07T22:03:57.184Z,33.08
2019-05-07T22:06:30.709Z,32.99
2019-05-07T22:09:03.012Z,33.09
2019-05-07T22:11:36.854Z,33.02
2019-05-07T22:14:12.736Z,33.02
2019-05-07T22:16:45.701Z,33.01
2019-05-07T22:19:18.586Z,33.04
2019-05-07T22:21:52.322Z,33.05
2019-05-07T22:24:29.635Z,32.99
2019-05-07T22:27:04.276Z,32.98
2019-05-07T22:29:36.822Z,32.99
2019-05-07T22:32:11.874Z,32.98
2019-05-07T22:34:47.249Z,32.97
2019-05-07T22:37:22.136Z,32.93
